Time;durP1;ratioP1;P1;durP2;ratioP2;P2;SDS_P1;SDS_P2;PMS_P1;PMS_P2;Temp;Humidity;BMP_temperature;BMP_pressure;BME280_temperature;BME280_humidity;BME280_pressure;Samples;Min_cycle;Max_cycle;Signal;HPM_P1;HPM_P2
2024/03/28 00:02:10;;;;;;;31.65;11.43;;;6.50;100.00;;;;;;4927089;28;20114;-73
2024/03/28 00:04:36;;;;;;;26.45;11.30;;;6.40;100.00;;;;;;4925056;29;20138;-73
2024/03/28 00:07:02;;;;;;;23.33;11.43;;;6.40;100.00;;;;;;4945770;28;20059;-73
2024/03/28 00:09:28;;;;;;;19.65;10.50;;;6.40;100.00;;;;;;4945010;29;20075;-73
2024/03/28 00:11:54;;;;;;;19.30;9.18;;;6.40;100.00;;;;;;4938740;28;20043;-72
2024/03/28 00:14:20;;;;;;;20.17;10.25;;;6.30;100.00;;;;;;4974550;28;20076;-73
2024/03/28 00:16:46;;;;;;;20.90;10.23;;;6.30;100.00;;;;;;4943850;29;20055;-73
2024/03/28 00:19:13;;;;;;;19.92;9.95;;;6.20;100.00;;;;;;4946417;28;20047;-73
2024/03/28 00:21:39;;;;;;;18.55;9.93;;;6.20;100.00;;;;;;4925938;29;20071;-73
2024/03/28 00:24:05;;;;;;;20.42;10.52;;;6.10;100.00;;;;;;4943234;28;20129;-73
2024/03/28 00:26:31;;;;;;;19.20;9.80;;;6.10;100.00;;;;;;4942110;28;20874;-73
2024/03/28 00:28:57;;;;;;;19.50;10.30;;;6.00;100.00;;;;;;4944104;29;20051;-73
2024/03/28 00:31:24;;;;;;;27.25;11.60;;;6.00;100.00;;;;;;4942604;28;20058;-73
2024/03/28 00:33:49;;;;;;;30.92;10.32;;;6.00;100.00;;;;;;4943151;28;20059;-73
2024/03/28 00:36:15;;;;;;;21.83;10.70;;;5.90;100.00;;;;;;4944162;28;20145;-73
2024/03/28 00:38:41;;;;;;;25.58;11.27;;;5.90;100.00;;;;;;4925565;29;20065;-73
2024/03/28 00:41:07;;;;;;;23.38;11.43;;;5.90;100.00;;;;;;4939725;28;20130;-73
2024/03/28 00:43:33;;;;;;;23.88;11.23;;;5.80;100.00;;;;;;4927287;28;20062;-73
2024/03/28 00:46:02;;;;;;;22.27;10.63;;;5.70;100.00;;;;;;4940885;28;20059;-73
2024/03/28 00:48:28;;;;;;;24.08;10.68;;;5.70;100.00;;;;;;4923224;29;20070;-73
2024/03/28 00:50:59;;;;;;;22.02;11.60;;;5.70;100.00;;;;;;4940086;28;21649;-72
2024/03/28 00:53:25;;;;;;;20.25;10.20;;;5.70;100.00;;;;;;4942018;28;20102;-73
2024/03/28 00:55:51;;;;;;;27.30;11.80;;;5.60;100.00;;;;;;4939340;28;20054;-73
2024/03/28 00:58:18;;;;;;;22.20;10.82;;;5.60;100.00;;;;;;4943472;28;20205;-73
2024/03/28 01:00:45;;;;;;;26.92;11.57;;;5.60;100.00;;;;;;4920617;29;20043;-73
2024/03/28 01:03:11;;;;;;;20.52;10.65;;;5.60;100.00;;;;;;4940637;28;20047;-73
2024/03/28 01:05:38;;;;;;;20.77;10.65;;;5.50;100.00;;;;;;4927216;29;20059;-73
2024/03/28 01:08:04;;;;;;;25.58;10.82;;;5.50;100.00;;;;;;4937214;29;20044;-73
2024/03/28 01:10:30;;;;;;;27.63;12.20;;;5.50;100.00;;;;;;4940039;28;20058;-73
2024/03/28 01:12:57;;;;;;;20.33;10.25;;;5.40;100.00;;;;;;4941418;29;20420;-73
2024/03/28 01:15:23;;;;;;;22.73;11.38;;;5.40;100.00;;;;;;4938750;28;20495;-73
2024/03/28 01:17:49;;;;;;;25.98;10.82;;;5.30;100.00;;;;;;4942051;29;20066;-73
2024/03/28 01:20:14;;;;;;;22.35;10.30;;;5.30;100.00;;;;;;4925709;29;20039;-73
2024/03/28 01:22:42;;;;;;;21.20;10.10;;;5.30;100.00;;;;;;4943187;28;20067;-73
2024/03/28 01:25:08;;;;;;;23.08;10.27;;;5.20;100.00;;;;;;4942321;29;20051;-72
2024/03/28 01:27:35;;;;;;;19.70;10.30;;;5.10;100.00;;;;;;4940391;28;20051;-72
2024/03/28 01:30:01;;;;;;;20.65;10.77;;;5.00;100.00;;;;;;4942617;28;20055;-73
2024/03/28 01:32:27;;;;;;;25.92;11.35;;;4.90;100.00;;;;;;4943309;28;20763;-72
2024/03/28 01:34:52;;;;;;;25.30;11.38;;;4.90;100.00;;;;;;4934651;28;20125;-73
2024/03/28 01:37:19;;;;;;;23.17;10.88;;;4.90;100.00;;;;;;4927081;29;20077;-73
2024/03/28 01:39:47;;;;;;;18.67;9.73;;;4.80;100.00;;;;;;4925644;29;20055;-73
2024/03/28 01:42:13;;;;;;;19.67;10.65;;;4.80;100.00;;;;;;4919467;29;20496;-73
2024/03/28 01:44:39;;;;;;;24.70;11.77;;;4.80;100.00;;;;;;4939227;28;20467;-73
2024/03/28 01:47:06;;;;;;;21.65;11.07;;;4.70;100.00;;;;;;4925262;29;20058;-73
2024/03/28 01:49:34;;;;;;;24.15;10.98;;;4.70;100.00;;;;;;4942352;28;20063;-73
2024/03/28 01:52:01;;;;;;;23.90;11.73;;;4.70;100.00;;;;;;4921077;29;20051;-73
2024/03/28 01:54:29;;;;;;;21.75;10.90;;;4.70;100.00;;;;;;4924338;29;20122;-73
2024/03/28 01:56:56;;;;;;;29.95;12.75;;;4.70;100.00;;;;;;4941005;28;20051;-73
2024/03/28 01:59:23;;;;;;;26.77;11.25;;;4.70;100.00;;;;;;4936396;28;20059;-73
2024/03/28 02:01:50;;;;;;;28.80;12.27;;;4.70;100.00;;;;;;4925080;29;20062;-73
2024/03/28 02:04:16;;;;;;;27.98;11.65;;;4.70;100.00;;;;;;4941940;28;20051;-73
2024/03/28 02:06:42;;;;;;;37.13;12.02;;;4.70;100.00;;;;;;4942185;28;20086;-73
2024/03/28 02:09:08;;;;;;;22.33;11.73;;;4.70;100.00;;;;;;4941441;28;20078;-73
2024/03/28 02:11:34;;;;;;;23.38;12.23;;;4.70;100.00;;;;;;4938960;29;20062;-73
2024/03/28 02:14:03;;;;;;;38.20;12.65;;;4.70;100.00;;;;;;4922896;29;20055;-73
2024/03/28 02:16:38;;;;;;;22.17;11.07;;;4.70;100.00;;;;;;4938706;29;20440;-73
2024/03/28 02:19:05;;;;;;;28.58;11.27;;;4.70;100.00;;;;;;4939691;28;20062;-73
2024/03/28 02:21:31;;;;;;;22.02;10.35;;;4.80;100.00;;;;;;4940646;28;20047;-73
2024/03/28 02:23:57;;;;;;;24.77;11.57;;;4.80;100.00;;;;;;4925780;29;20047;-73
2024/03/28 02:26:24;;;;;;;23.77;11.80;;;4.80;100.00;;;;;;4939475;28;20051;-73
2024/03/28 02:28:51;;;;;;;24.70;11.55;;;4.80;100.00;;;;;;4927093;29;20059;-73
2024/03/28 02:31:17;;;;;;;21.58;11.10;;;4.80;100.00;;;;;;4941793;28;20062;-73
2024/03/28 02:33:43;;;;;;;20.42;10.93;;;4.70;100.00;;;;;;4926383;29;20051;-73
2024/03/28 02:36:09;;;;;;;25.45;11.85;;;4.70;100.00;;;;;;4937074;28;20413;-73
2024/03/28 02:38:35;;;;;;;24.92;11.63;;;4.70;100.00;;;;;;4934173;28;20078;-73
2024/03/28 02:41:01;;;;;;;23.45;10.57;;;4.70;100.00;;;;;;4922804;28;20059;-72
2024/03/28 02:43:28;;;;;;;22.73;10.82;;;4.60;100.00;;;;;;4939155;28;20058;-72
2024/03/28 02:45:54;;;;;;;21.38;10.50;;;4.60;100.00;;;;;;4921210;28;20114;-73
2024/03/28 02:48:20;;;;;;;24.35;11.07;;;4.50;100.00;;;;;;4945489;28;20055;-73
2024/03/28 02:50:46;;;;;;;22.58;12.15;;;4.50;100.00;;;;;;4934035;28;20073;-73
2024/03/28 02:53:12;;;;;;;21.40;10.95;;;4.50;100.00;;;;;;4941074;28;20727;-73
2024/03/28 02:55:38;;;;;;;25.90;11.77;;;4.50;100.00;;;;;;4945178;28;20063;-73
2024/03/28 02:58:04;;;;;;;23.08;11.48;;;4.50;100.00;;;;;;4924699;28;20058;-73
2024/03/28 03:00:31;;;;;;;26.73;12.43;;;4.50;100.00;;;;;;4930023;29;20159;-73
2024/03/28 03:02:58;;;;;;;27.33;13.48;;;4.40;100.00;;;;;;4940096;28;20051;-73
2024/03/28 03:05:25;;;;;;;24.00;12.63;;;4.40;100.00;;;;;;4924464;29;20489;-73
2024/03/28 03:07:51;;;;;;;30.75;14.15;;;4.40;100.00;;;;;;4939427;28;20130;-73
2024/03/28 03:10:17;;;;;;;33.70;12.57;;;4.40;100.00;;;;;;4929231;28;20744;-73
2024/03/28 03:12:42;;;;;;;28.98;12.90;;;4.40;100.00;;;;;;4946033;29;20054;-73
2024/03/28 03:15:09;;;;;;;24.25;11.80;;;4.50;100.00;;;;;;4944356;29;20059;-73
2024/03/28 03:17:36;;;;;;;25.92;12.63;;;4.50;100.00;;;;;;4945596;29;20508;-73
2024/03/28 03:20:08;;;;;;;24.30;12.40;;;4.50;100.00;;;;;;4944673;29;20445;-73
2024/03/28 03:22:35;;;;;;;27.55;12.10;;;4.40;100.00;;;;;;4944321;28;20074;-73
2024/03/28 03:25:11;;;;;;;28.65;12.70;;;4.40;100.00;;;;;;4943966;28;20050;-73
2024/03/28 03:34:34;;;;;;;25.27;12.40;;;4.40;100.00;;;;;;4944582;28;20059;-73
2024/03/28 03:35:52;;;;;;;28.08;12.13;;;4.40;100.00;;;;;;4945873;28;20063;-72
2024/03/28 03:38:18;;;;;;;33.55;12.40;;;4.40;100.00;;;;;;4923625;29;20118;-72
2024/03/28 03:40:43;;;;;;;24.40;12.32;;;4.40;100.00;;;;;;4926882;29;20051;-72
2024/03/28 03:43:09;;;;;;;26.98;11.82;;;4.40;100.00;;;;;;4944335;28;20047;-73
2024/03/28 03:45:35;;;;;;;26.10;11.25;;;4.30;100.00;;;;;;4944719;29;20115;-73
2024/03/28 03:48:01;;;;;;;31.02;12.50;;;4.30;100.00;;;;;;4945056;28;20054;-72
2024/03/28 03:50:27;;;;;;;22.15;11.70;;;4.30;100.00;;;;;;4934348;29;20061;-73
2024/03/28 03:52:52;;;;;;;27.10;12.80;;;4.30;100.00;;;;;;4945228;29;20063;-72
2024/03/28 03:55:18;;;;;;;26.27;12.60;;;4.40;100.00;;;;;;4923845;28;20066;-72
2024/03/28 03:57:44;;;;;;;27.45;13.45;;;4.40;100.00;;;;;;4943360;28;20061;-73
2024/03/28 04:00:10;;;;;;;33.55;14.50;;;4.40;100.00;;;;;;4926816;29;20132;-73
2024/03/28 04:02:36;;;;;;;28.60;13.15;;;4.40;100.00;;;;;;4941511;28;20071;-73
2024/03/28 04:05:03;;;;;;;26.50;13.63;;;4.50;100.00;;;;;;4928620;29;20058;-73
2024/03/28 04:07:29;;;;;;;25.25;12.68;;;4.50;100.00;;;;;;4928787;29;20062;-73
2024/03/28 04:09:55;;;;;;;26.85;13.38;;;4.50;100.00;;;;;;4944980;28;20063;-73
2024/03/28 04:12:21;;;;;;;30.52;12.32;;;4.50;100.00;;;;;;4944405;28;20055;-73
2024/03/28 04:14:47;;;;;;;28.02;12.43;;;4.50;100.00;;;;;;4944233;29;20094;-72
2024/03/28 04:17:15;;;;;;;33.35;13.15;;;4.40;100.00;;;;;;4942525;28;20074;-72
2024/03/28 04:19:41;;;;;;;37.45;13.00;;;4.40;100.00;;;;;;4944036;28;20106;-72
2024/03/28 04:22:07;;;;;;;28.45;12.85;;;4.40;100.00;;;;;;4924678;29;20065;-72
2024/03/28 04:24:32;;;;;;;36.92;13.63;;;4.30;100.00;;;;;;4927447;29;20043;-72
2024/03/28 04:26:58;;;;;;;32.90;13.48;;;4.30;100.00;;;;;;4941925;28;20051;-72
2024/03/28 04:29:25;;;;;;;24.63;12.07;;;4.30;100.00;;;;;;4943959;28;20050;-72
2024/03/28 04:31:51;;;;;;;29.17;12.43;;;4.30;100.00;;;;;;4943915;28;20062;-73
2024/03/28 04:34:17;;;;;;;31.60;12.52;;;4.30;100.00;;;;;;4943322;28;20047;-73
2024/03/28 04:36:43;;;;;;;29.55;13.02;;;4.30;100.00;;;;;;4939830;28;20063;-72
2024/03/28 04:39:13;;;;;;;31.20;13.05;;;4.30;100.00;;;;;;4943918;28;20059;-72
2024/03/28 04:41:39;;;;;;;23.00;12.05;;;4.20;100.00;;;;;;4927846;29;20606;-73
2024/03/28 04:44:04;;;;;;;37.55;16.92;;;4.20;100.00;;;;;;4943316;28;20078;-73
2024/03/28 04:46:30;;;;;;;32.03;14.77;;;4.20;100.00;;;;;;4936750;28;20193;-73
2024/03/28 04:48:56;;;;;;;35.15;16.50;;;4.20;100.00;;;;;;4925822;28;20397;-73
2024/03/28 04:51:22;;;;;;;32.05;15.73;;;4.30;100.00;;;;;;4924587;29;20067;-73
2024/03/28 04:53:48;;;;;;;29.50;13.85;;;4.20;100.00;;;;;;4925269;29;20059;-73
2024/03/28 04:56:14;;;;;;;28.98;12.93;;;4.30;100.00;;;;;;4943628;28;20102;-73
2024/03/28 04:58:39;;;;;;;27.85;13.55;;;4.20;100.00;;;;;;4940308;28;20120;-73
2024/03/28 05:01:05;;;;;;;26.45;12.38;;;4.10;100.00;;;;;;4924035;29;20527;-73
2024/03/28 05:03:31;;;;;;;28.55;12.32;;;4.10;100.00;;;;;;4927255;29;20051;-73
2024/03/28 05:05:57;;;;;;;35.90;13.52;;;4.10;100.00;;;;;;4926015;29;20063;-72
2024/03/28 05:08:23;;;;;;;39.13;14.10;;;4.10;100.00;;;;;;4943325;28;20053;-72
2024/03/28 05:10:48;;;;;;;31.38;14.77;;;4.20;100.00;;;;;;4943357;28;20062;-72
2024/03/28 05:13:14;;;;;;;32.50;14.73;;;4.30;100.00;;;;;;4943402;28;20065;-73
2024/03/28 05:15:40;;;;;;;37.53;14.48;;;4.40;100.00;;;;;;4941803;28;20135;-74
2024/03/28 05:18:06;;;;;;;28.70;15.15;;;4.50;100.00;;;;;;4942566;28;20059;-74
2024/03/28 05:20:32;;;;;;;39.08;14.70;;;4.60;100.00;;;;;;4925943;29;20057;-74
2024/03/28 05:22:58;;;;;;;33.60;15.57;;;4.70;100.00;;;;;;4940990;28;20880;-74
2024/03/28 05:25:24;;;;;;;30.85;15.00;;;4.80;100.00;;;;;;4918228;29;20055;-74
2024/03/28 05:27:50;;;;;;;37.10;15.02;;;4.90;100.00;;;;;;4942777;28;20039;-78
2024/03/28 05:30:16;;;;;;;32.90;14.38;;;4.90;100.00;;;;;;4944169;28;20106;-74
2024/03/28 05:32:42;;;;;;;35.05;15.13;;;4.90;100.00;;;;;;4944344;28;20138;-72
2024/03/28 05:35:08;;;;;;;35.03;14.27;;;5.00;100.00;;;;;;4924773;29;20640;-71
2024/03/28 05:37:33;;;;;;;38.38;14.73;;;5.00;100.00;;;;;;4940926;28;20958;-72
2024/03/28 05:39:59;;;;;;;33.88;14.35;;;5.00;100.00;;;;;;4943028;28;20062;-72
2024/03/28 05:42:25;;;;;;;29.10;13.90;;;5.10;100.00;;;;;;4936764;28;20051;-74
2024/03/28 05:44:51;;;;;;;30.15;14.40;;;5.20;100.00;;;;;;4939551;28;20059;-73
2024/03/28 05:47:17;;;;;;;30.48;14.02;;;5.20;100.00;;;;;;4927017;29;20689;-72
2024/03/28 05:49:42;;;;;;;28.45;13.73;;;5.30;100.00;;;;;;4926753;29;20086;-75
2024/03/28 05:52:08;;;;;;;34.85;15.02;;;5.40;100.00;;;;;;4942741;28;20113;-73
2024/03/28 05:54:34;;;;;;;27.38;13.93;;;5.50;100.00;;;;;;4940279;28;20051;-77
2024/03/28 05:57:00;;;;;;;31.33;14.00;;;5.60;100.00;;;;;;4944144;28;20221;-76
2024/03/28 05:59:26;;;;;;;29.67;14.32;;;5.80;100.00;;;;;;4943571;28;20057;-76
2024/03/28 06:01:53;;;;;;;35.95;15.20;;;6.00;100.00;;;;;;4926835;28;20051;-75
2024/03/28 06:04:19;;;;;;;26.88;14.88;;;6.20;100.00;;;;;;4941241;28;20047;-74
2024/03/28 06:06:45;;;;;;;33.90;16.02;;;6.40;100.00;;;;;;4942171;28;20801;-74
2024/03/28 06:09:11;;;;;;;31.63;15.38;;;6.60;100.00;;;;;;4938187;28;20143;-74
2024/03/28 06:11:37;;;;;;;32.35;15.43;;;6.80;100.00;;;;;;4935876;29;20066;-74
2024/03/28 06:14:09;;;;;;;30.58;14.50;;;7.00;100.00;;;;;;4937341;29;20067;-75
2024/03/28 06:16:35;;;;;;;33.80;16.17;;;7.20;100.00;;;;;;4921233;29;20075;-75
2024/03/28 06:19:02;;;;;;;35.60;16.60;;;7.40;100.00;;;;;;4943548;29;20095;-74
2024/03/28 06:21:28;;;;;;;32.90;15.90;;;7.70;100.00;;;;;;4945483;28;20051;-74
2024/03/28 06:23:54;;;;;;;37.45;15.45;;;7.90;100.00;;;;;;4946534;28;20751;-75
2024/03/28 06:26:20;;;;;;;32.15;14.88;;;8.10;100.00;;;;;;4945607;28;20144;-74
2024/03/28 06:28:47;;;;;;;47.63;15.43;;;8.40;100.00;;;;;;4945299;28;20055;-74
2024/03/28 06:31:16;;;;;;;34.28;15.32;;;8.60;100.00;;;;;;4930743;28;20062;-74
2024/03/28 06:33:44;;;;;;;34.33;14.98;;;8.80;100.00;;;;;;4945361;28;20547;-74
2024/03/28 06:36:10;;;;;;;27.63;14.18;;;9.00;100.00;;;;;;4944832;28;20485;-73
2024/03/28 06:38:37;;;;;;;24.08;12.70;;;9.10;100.00;;;;;;4946965;28;20070;-73
2024/03/28 06:41:03;;;;;;;31.35;12.82;;;9.20;100.00;;;;;;4947126;28;20051;-73
2024/03/28 06:43:28;;;;;;;28.15;12.80;;;9.30;100.00;;;;;;4943973;28;20055;-73
2024/03/28 06:45:54;;;;;;;31.70;14.00;;;9.40;100.00;;;;;;4926757;29;20059;-74
2024/03/28 06:48:20;;;;;;;21.85;11.93;;;9.50;100.00;;;;;;4946223;29;20047;-74
2024/03/28 06:50:46;;;;;;;32.90;13.25;;;9.50;100.00;;;;;;4945891;28;20062;-73
2024/03/28 06:53:14;;;;;;;28.98;12.82;;;9.60;100.00;;;;;;4943358;28;20173;-73
2024/03/28 06:55:40;;;;;;;36.47;12.30;;;9.60;100.00;;;;;;4939777;28;20055;-74
2024/03/28 06:58:05;;;;;;;30.95;13.13;;;9.60;100.00;;;;;;4930845;29;20133;-74
2024/03/28 07:00:32;;;;;;;26.88;11.75;;;9.70;100.00;;;;;;4950089;28;20062;-73
2024/03/28 07:02:57;;;;;;;26.42;13.63;;;9.70;100.00;;;;;;4946389;28;20043;-73
2024/03/28 07:05:24;;;;;;;29.40;12.63;;;9.70;100.00;;;;;;4945666;28;20141;-74
2024/03/28 07:07:51;;;;;;;19.35;10.77;;;9.80;100.00;;;;;;4929545;29;20117;-73
2024/03/28 07:10:16;;;;;;;23.55;12.27;;;9.80;100.00;;;;;;4927216;29;20393;-74
2024/03/28 07:12:42;;;;;;;21.45;12.13;;;9.90;100.00;;;;;;4943722;28;20085;-74
2024/03/28 07:15:11;;;;;;;32.40;12.43;;;9.90;100.00;;;;;;4924305;29;20146;-74
2024/03/28 07:17:37;;;;;;;23.05;11.98;;;9.90;100.00;;;;;;4927141;29;20059;-73
2024/03/28 07:20:03;;;;;;;21.05;10.57;;;9.90;100.00;;;;;;4945824;28;20113;-74
2024/03/28 07:22:30;;;;;;;31.40;12.82;;;10.00;100.00;;;;;;4926386;28;20055;-73
2024/03/28 07:24:56;;;;;;;23.73;11.75;;;10.00;100.00;;;;;;4938342;28;20055;-72
2024/03/28 07:27:27;;;;;;;20.58;11.05;;;10.00;100.00;;;;;;4922889;28;20764;-73
2024/03/28 07:29:53;;;;;;;23.45;11.52;;;10.10;100.00;;;;;;4938728;28;20051;-73
2024/03/28 07:32:18;;;;;;;21.15;11.35;;;10.10;100.00;;;;;;4922782;28;20058;-73
2024/03/28 07:34:44;;;;;;;23.52;11.95;;;10.20;100.00;;;;;;4923538;28;20052;-74
2024/03/28 07:37:11;;;;;;;22.42;11.75;;;10.20;100.00;;;;;;4946540;28;20055;-76
2024/03/28 07:39:37;;;;;;;25.77;13.32;;;10.20;100.00;;;;;;4945769;28;20074;-77
2024/03/28 07:42:03;;;;;;;21.45;12.05;;;10.20;100.00;;;;;;4927781;29;20065;-74
2024/03/28 07:44:29;;;;;;;26.58;13.20;;;10.00;100.00;;;;;;4944624;28;20055;-77
2024/03/28 07:46:54;;;;;;;22.98;12.80;;;9.90;100.00;;;;;;4944686;29;20055;-75
2024/03/28 07:49:21;;;;;;;22.48;11.55;;;9.90;100.00;;;;;;4946286;28;20649;-75
2024/03/28 07:51:47;;;;;;;20.10;11.23;;;9.90;100.00;;;;;;4924234;28;20792;-76
2024/03/28 07:54:13;;;;;;;27.45;10.80;;;9.80;100.00;;;;;;4938970;28;20074;-74
2024/03/28 07:56:39;;;;;;;27.50;10.85;;;9.80;100.00;;;;;;4938300;28;20051;-73
2024/03/28 07:59:06;;;;;;;28.83;10.75;;;9.80;100.00;;;;;;4939884;28;20055;-73
2024/03/28 08:01:32;;;;;;;25.95;10.43;;;9.80;100.00;;;;;;4938588;28;20683;-74
2024/03/28 08:03:58;;;;;;;19.70;10.13;;;9.70;100.00;;;;;;4938395;28;20055;-74
2024/03/28 08:06:24;;;;;;;16.92;10.85;;;9.70;100.00;;;;;;4945915;28;20050;-75
2024/03/28 08:08:50;;;;;;;19.20;11.23;;;9.80;100.00;;;;;;4942544;28;20106;-75
2024/03/28 08:11:16;;;;;;;20.95;11.45;;;9.70;100.00;;;;;;4927492;29;20067;-75
2024/03/28 08:13:42;;;;;;;26.58;13.95;;;9.70;100.00;;;;;;4940638;28;20055;-75
2024/03/28 08:16:07;;;;;;;32.97;17.83;;;9.70;100.00;;;;;;4943020;28;20673;-74
2024/03/28 08:18:33;;;;;;;37.25;19.63;;;9.50;100.00;;;;;;4943165;28;20055;-76
2024/03/28 08:21:00;;;;;;;40.67;21.25;;;9.20;100.00;;;;;;4925176;28;20105;-76
2024/03/28 08:23:27;;;;;;;55.65;24.02;;;9.00;100.00;;;;;;4944060;28;20511;-75
2024/03/28 08:25:53;;;;;;;62.50;27.55;;;8.90;100.00;;;;;;4939820;28;20068;-75
2024/03/28 08:28:19;;;;;;;48.28;23.55;;;8.80;100.00;;;;;;4942574;28;20693;-74
2024/03/28 08:30:45;;;;;;;44.85;22.67;;;8.70;100.00;;;;;;4927624;29;20663;-78
2024/03/28 08:33:10;;;;;;;47.25;24.42;;;8.70;100.00;;;;;;4949975;28;20062;-75
2024/03/28 08:35:41;;;;;;;50.42;26.42;;;8.70;100.00;;;;;;4944266;28;20055;-69
2024/03/28 08:38:08;;;;;;;64.05;31.05;;;8.70;100.00;;;;;;4940411;28;20089;-70
2024/03/28 08:40:35;;;;;;;72.20;34.22;;;8.50;100.00;;;;;;4942316;28;20087;-71
2024/03/28 08:43:02;;;;;;;62.13;31.90;;;8.40;100.00;;;;;;4939971;28;20047;-71
2024/03/28 08:45:28;;;;;;;75.38;29.30;;;8.40;100.00;;;;;;4942836;28;20062;-71
2024/03/28 08:47:56;;;;;;;60.85;29.23;;;8.30;100.00;;;;;;4938865;28;20416;-71
2024/03/28 08:50:22;;;;;;;99.00;33.15;;;8.30;100.00;;;;;;4946861;28;20063;-72
2024/03/28 08:52:49;;;;;;;88.25;32.47;;;8.40;100.00;;;;;;4922151;29;20067;-71
2024/03/28 08:55:17;;;;;;;64.97;31.52;;;8.40;100.00;;;;;;4924869;28;20083;-72
2024/03/28 08:57:44;;;;;;;66.75;30.13;;;8.40;100.00;;;;;;4923916;29;20059;-71
2024/03/28 09:00:14;;;;;;;65.30;29.98;;;8.40;100.00;;;;;;4926613;29;20055;-72
2024/03/28 09:02:41;;;;;;;84.43;33.67;;;8.40;100.00;;;;;;4941099;28;20051;-72
2024/03/28 09:05:08;;;;;;;67.03;33.35;;;8.40;100.00;;;;;;4941170;28;20055;-72
2024/03/28 09:07:36;;;;;;;87.03;37.80;;;8.30;100.00;;;;;;4942546;28;20094;-72
2024/03/28 09:10:05;;;;;;;78.07;37.80;;;8.30;100.00;;;;;;4938933;28;20047;-73
2024/03/28 09:12:41;;;;;;;73.40;35.35;;;8.30;100.00;;;;;;4939595;29;20043;-72
2024/03/28 09:15:10;;;;;;;;;;;8.30;100.00;;;;;;4938448;28;20055;-72
2024/03/28 09:17:36;;;;;;;69.43;32.95;;;8.30;100.00;;;;;;4940971;28;20382;-72
2024/03/28 09:20:05;;;;;;;66.93;34.55;;;8.20;100.00;;;;;;4938267;28;20055;-71
2024/03/28 09:22:33;;;;;;;67.75;33.25;;;8.10;100.00;;;;;;4928097;29;20063;-72
2024/03/28 09:25:00;;;;;;;79.25;37.30;;;8.10;100.00;;;;;;4925477;28;20649;-72
2024/03/28 09:27:27;;;;;;;70.43;34.17;;;8.10;100.00;;;;;;4940091;28;20055;-72
2024/03/28 09:29:56;;;;;;;63.00;31.60;;;8.10;100.00;;;;;;4923791;28;20077;-73
2024/03/28 09:32:23;;;;;;;63.35;32.35;;;8.10;100.00;;;;;;4941188;28;20058;-72
2024/03/28 09:34:49;;;;;;;70.15;37.35;;;8.00;100.00;;;;;;4939126;28;20072;-72
2024/03/28 09:37:15;;;;;;;58.00;30.50;;;8.00;100.00;;;;;;4941937;28;20130;-72
2024/03/28 09:39:45;;;;;;;65.57;34.10;;;7.90;100.00;;;;;;4943557;28;20055;-72
2024/03/28 09:42:12;;;;;;;63.72;29.95;;;7.90;100.00;;;;;;4922259;29;20051;-72
2024/03/28 09:44:38;;;;;;;62.40;30.58;;;7.90;100.00;;;;;;4920887;29;20509;-72
2024/03/28 09:47:05;;;;;;;62.47;31.27;;;7.80;100.00;;;;;;4939460;28;20499;-72
2024/03/28 09:49:35;;;;;;;59.95;29.63;;;7.80;100.00;;;;;;4941763;28;20054;-72
2024/03/28 09:52:03;;;;;;;62.35;31.10;;;7.80;100.00;;;;;;4942554;28;20059;-71
2024/03/28 09:54:34;;;;;;;75.10;39.30;;;7.80;100.00;;;;;;4921249;29;20055;-72
2024/03/28 09:57:00;;;;;;;69.57;31.13;;;7.80;100.00;;;;;;4926103;29;20115;-72
2024/03/28 09:59:27;;;;;;;62.03;29.10;;;7.90;100.00;;;;;;4924564;28;20066;-72
2024/03/28 10:02:14;;;;;;;66.97;31.00;;;7.90;100.00;;;;;;4922956;28;20066;-71
2024/03/28 10:04:48;;;;;;;56.67;27.38;;;7.90;100.00;;;;;;4927181;28;20058;-71
2024/03/28 10:07:16;;;;;;;58.05;27.27;;;7.90;100.00;;;;;;4925219;28;20047;-70
2024/03/28 10:09:44;;;;;;;49.30;24.10;;;8.00;100.00;;;;;;4938829;28;20760;-70
2024/03/28 10:12:14;;;;;;;52.58;25.90;;;7.90;100.00;;;;;;4939477;28;20055;-71
2024/03/28 10:14:42;;;;;;;55.13;25.83;;;8.00;100.00;;;;;;4936489;28;21763;-73
2024/03/28 10:17:12;;;;;;;47.47;22.45;;;8.00;100.00;;;;;;4937563;28;20053;-72
2024/03/28 10:19:40;;;;;;;44.05;22.35;;;8.00;100.00;;;;;;4940095;28;20244;-72
2024/03/28 10:22:11;;;;;;;38.38;20.23;;;8.00;100.00;;;;;;4938809;28;20055;-72
2024/03/28 10:24:37;;;;;;;35.50;16.42;;;8.10;100.00;;;;;;4941150;28;20071;-72
2024/03/28 10:27:16;;;;;;;30.83;15.27;;;8.10;100.00;;;;;;4924828;29;20101;-73
2024/03/28 10:30:02;;;;;;;49.10;23.95;;;8.10;100.00;;;;;;4937551;28;20141;-72
2024/03/28 10:32:28;;;;;;;21.42;11.45;;;8.20;100.00;;;;;;4925841;29;20619;-72
2024/03/28 10:34:56;;;;;;;23.85;10.80;;;8.20;100.00;;;;;;4921259;29;20060;-73
2024/03/28 10:37:26;;;;;;;10.07;5.60;;;8.10;100.00;;;;;;4922830;29;20048;-73
2024/03/28 10:39:53;;;;;;;14.82;7.38;;;8.10;100.00;;;;;;4921706;29;20859;-73
2024/03/28 10:42:20;;;;;;;19.73;8.80;;;8.10;100.00;;;;;;4934652;28;20107;-73
2024/03/28 10:44:48;;;;;;;12.88;7.15;;;8.20;100.00;;;;;;4939124;28;20066;-73
2024/03/28 10:47:16;;;;;;;11.80;5.82;;;8.20;100.00;;;;;;4925556;29;20522;-73
2024/03/28 10:49:46;;;;;;;12.57;6.22;;;8.20;100.00;;;;;;4922847;29;20066;-73
2024/03/28 10:52:20;;;;;;;10.52;4.75;;;8.20;100.00;;;;;;4939763;28;20935;-73
2024/03/28 10:55:03;;;;;;;9.95;4.65;;;8.30;100.00;;;;;;4941534;28;20100;-73
2024/03/28 10:57:32;;;;;;;16.77;8.88;;;8.20;100.00;;;;;;4919880;29;20055;-74
2024/03/28 11:00:00;;;;;;;14.88;7.65;;;8.20;100.00;;;;;;4940670;29;20054;-73
2024/03/28 11:02:29;;;;;;;14.68;7.97;;;8.20;100.00;;;;;;4921365;29;20905;-73
2024/03/28 11:04:55;;;;;;;19.35;8.07;;;8.30;100.00;;;;;;4926891;29;20047;-73
2024/03/28 11:07:22;;;;;;;11.05;5.07;;;8.30;100.00;;;;;;4942758;28;20051;-73
2024/03/28 11:09:54;;;;;;;10.68;5.45;;;8.40;100.00;;;;;;4944160;28;20061;-74
2024/03/28 11:12:21;;;;;;;9.30;4.25;;;8.40;100.00;;;;;;4941288;29;20796;-73
2024/03/28 11:15:04;;;;;;;11.57;4.68;;;8.50;100.00;;;;;;4920870;29;20067;-73
2024/03/28 11:17:40;;;;;;;8.73;4.30;;;8.60;100.00;;;;;;4941794;29;20066;-73
2024/03/28 11:20:08;;;;;;;12.23;5.07;;;8.70;100.00;;;;;;4937247;29;20066;-73
2024/03/28 11:22:35;;;;;;;7.57;4.38;;;8.80;100.00;;;;;;4938844;28;20066;-73
2024/03/28 11:25:01;;;;;;;8.80;4.70;;;8.90;100.00;;;;;;4922953;29;20063;-73
2024/03/28 11:27:27;;;;;;;15.25;3.70;;;9.00;100.00;;;;;;4924580;29;20066;-74
2024/03/28 11:30:07;;;;;;;6.90;3.28;;;9.00;100.00;;;;;;4926404;28;20067;-74
2024/03/28 11:32:34;;;;;;;6.43;3.38;;;9.00;100.00;;;;;;4942042;28;20630;-73
2024/03/28 11:35:10;;;;;;;9.32;3.60;;;8.90;100.00;;;;;;4941952;28;20055;-74
2024/03/28 11:37:36;;;;;;;6.70;3.65;;;9.00;100.00;;;;;;4941644;28;20389;-74
2024/03/28 11:40:03;;;;;;;7.45;3.22;;;9.50;100.00;;;;;;4925361;29;20667;-74
2024/03/28 11:42:30;;;;;;;31.63;4.80;;;10.60;100.00;;;;;;4942531;29;20068;-74
2024/03/28 11:45:05;;;;;;;5.22;3.10;;;11.70;100.00;;;;;;4940030;28;20797;-74
2024/03/28 11:47:32;;;;;;;9.32;3.22;;;12.00;100.00;;;;;;4941352;28;20051;-74
2024/03/28 11:50:08;;;;;;;5.43;2.60;;;11.90;100.00;;;;;;4927490;29;20054;-74
2024/03/28 11:52:38;;;;;;;42.47;4.47;;;11.70;100.00;;;;;;4927126;29;20055;-74
2024/03/28 11:55:06;;;;;;;5.00;3.00;;;12.00;100.00;;;;;;4940739;28;20389;-74
2024/03/28 11:57:32;;;;;;;9.57;4.65;;;12.30;100.00;;;;;;4939828;28;20499;-73
2024/03/28 12:00:05;;;;;;;24.13;4.32;;;12.80;100.00;;;;;;4943879;28;20106;-74
2024/03/28 12:02:31;;;;;;;4.43;2.47;;;13.80;100.00;;;;;;4925504;28;20047;-72
2024/03/28 12:05:06;;;;;;;6.50;2.05;;;14.40;100.00;;;;;;4941686;28;20062;-74
2024/03/28 12:07:33;;;;;;;7.22;2.13;;;14.30;100.00;;;;;;4923635;29;20062;-73
2024/03/28 12:09:59;;;;;;;4.40;2.38;;;14.00;100.00;;;;;;4940682;28;20050;-75
2024/03/28 12:12:25;;;;;;;2.85;1.95;;;13.70;100.00;;;;;;4925023;29;20055;-74
2024/03/28 12:14:52;;;;;;;3.47;1.60;;;13.30;100.00;;;;;;4927134;29;20373;-74
2024/03/28 12:17:18;;;;;;;2.00;1.20;;;12.80;100.00;;;;;;4943594;28;20066;-74
2024/03/28 12:19:44;;;;;;;1.63;1.08;;;12.40;100.00;;;;;;4941642;28;20691;-74
2024/03/28 12:22:10;;;;;;;5.10;1.52;;;12.10;100.00;;;;;;4928558;29;20766;-73
2024/03/28 12:24:37;;;;;;;3.60;0.80;;;11.90;100.00;;;;;;4944054;28;20063;-74
2024/03/28 12:27:04;;;;;;;2.42;0.85;;;11.60;100.00;;;;;;4942247;28;20050;-74
2024/03/28 12:29:30;;;;;;;2.42;0.80;;;11.40;100.00;;;;;;4922171;28;20854;-73
2024/03/28 12:32:07;;;;;;;1.15;0.60;;;11.30;100.00;;;;;;4921079;29;20062;-74
2024/03/28 12:34:36;;;;;;;2.90;0.70;;;11.30;100.00;;;;;;4927457;29;20686;-73